Time,TemperatureF,DewpointF,PressureIn,WindDirection,WindDirectionDegrees,WindSpeedMPH,WindSpeedGustMPH,Humidity,HourlyPrecipIn,Conditions,Clouds,dailyrainin,SoftwareType,DateUTC
2013-03-21 00:02:00,42.5,24.0,29.91,West,276,2.0,4.0,49,0.00,,,0.00,weatherlink.com 1.10,2013-03-21 06:02:00,
2013-03-21 00:17:00,42.5,23.0,29.91,West,276,1.0,2.0,47,0.00,,,0.00,weatherlink.com 1.10,2013-03-21 06:17:00,
2013-03-21 00:32:00,42.5,24.0,29.90,West,276,0.0,4.0,48,0.00,,,0.00,weatherlink.com 1.10,2013-03-21 06:32:00,
2013-03-21 00:47:00,44.1,24.0,29.90,West,275,3.0,5.0,46,0.00,,,0.00,weatherlink.com 1.10,2013-03-21 06:47:00,
2013-03-21 01:02:00,44.6,25.0,29.90,West,275,1.0,5.0,46,0.00,,,0.00,weatherlink.com 1.10,2013-03-21 07:02:00,
2013-03-21 01:17:00,45.0,25.0,29.89,West,272,0.0,0.0,45,0.00,,,0.00,weatherlink.com 1.10,2013-03-21 07:17:00,
2013-03-21 01:32:00,44.0,25.0,29.89,West,272,0.0,1.0,47,0.00,,,0.00,weatherlink.com 1.10,2013-03-21 07:32:00,
2013-03-21 01:47:00,43.2,26.0,29.88,West,272,0.0,1.0,50,0.00,,,0.00,weatherlink.com 1.10,2013-03-21 07:47:00,
2013-03-21 02:03:00,42.7,25.0,29.87,West,272,3.0,3.0,49,0.00,,,0.00,weatherlink.com 1.10,2013-03-21 08:03:00,
2013-03-21 02:18:00,42.9,25.0,29.86,West,272,0.0,1.0,49,0.00,,,0.00,weatherlink.com 1.10,2013-03-21 08:18:00,
2013-03-21 02:33:00,42.7,26.0,29.85,West,272,1.0,2.0,51,0.00,,,0.00,weatherlink.com 1.10,2013-03-21 08:33:00,
2013-03-21 02:48:00,42.8,26.0,29.84,West,272,1.0,3.0,52,0.00,,,0.00,weatherlink.com 1.10,2013-03-21 08:48:00,
2013-03-21 03:03:00,44.2,26.0,29.83,West,259,1.0,4.0,50,0.00,,,0.00,weatherlink.com 1.10,2013-03-21 09:03:00,
2013-03-21 03:18:00,44.6,26.0,29.82,SW,233,2.0,8.0,49,0.00,,,0.00,weatherlink.com 1.10,2013-03-21 09:18:00,
2013-03-21 03:33:00,44.5,26.0,29.81,SSW,201,3.0,7.0,49,0.00,,,0.00,weatherlink.com 1.10,2013-03-21 09:33:00,
2013-03-21 03:48:00,44.1,26.0,29.80,SSW,199,2.0,6.0,50,0.00,,,0.00,weatherlink.com 1.10,2013-03-21 09:48:00,
2013-03-21 04:03:00,44.1,26.0,29.79,SSW,192,4.0,8.0,50,0.00,,,0.00,weatherlink.com 1.10,2013-03-21 10:03:00,
2013-03-21 04:18:00,44.0,26.0,29.78,South,190,2.0,6.0,50,0.00,,,0.00,weatherlink.com 1.10,2013-03-21 10:18:00,
2013-03-21 04:33:00,43.9,27.0,29.77,South,184,5.0,8.0,51,0.00,,,0.00,weatherlink.com 1.10,2013-03-21 10:33:00,
2013-03-21 04:48:00,43.9,27.0,29.76,South,184,4.0,8.0,52,0.00,,,0.00,weatherlink.com 1.10,2013-03-21 10:48:00,
2013-03-21 05:03:00,43.9,27.0,29.76,South,184,3.0,6.0,52,0.00,,,0.00,weatherlink.com 1.10,2013-03-21 11:03:00,
2013-03-21 05:18:00,43.9,27.0,29.75,South,184,2.0,6.0,51,0.00,,,0.00,weatherlink.com 1.10,2013-03-21 11:18:00,
2013-03-21 05:33:00,44.1,27.0,29.74,South,178,5.0,7.0,51,0.00,,,0.00,weatherlink.com 1.10,2013-03-21 11:33:00,
2013-03-21 05:48:00,44.0,27.0,29.74,South,178,3.0,7.0,51,0.00,,,0.00,weatherlink.com 1.10,2013-03-21 11:48:00,
2013-03-21 06:03:00,43.6,27.0,29.74,South,178,3.0,8.0,52,0.00,,,0.00,weatherlink.com 1.10,2013-03-21 12:03:00,
2013-03-21 06:18:00,43.9,26.0,29.74,South,180,5.0,7.0,50,0.00,,,0.00,weatherlink.com 1.10,2013-03-21 12:18:00,
2013-03-21 06:33:00,44.2,26.0,29.74,South,190,2.0,7.0,49,0.00,,,0.00,weatherlink.com 1.10,2013-03-21 12:33:00,
2013-03-21 06:48:00,43.9,26.0,29.74,South,190,0.0,4.0,50,0.00,,,0.00,weatherlink.com 1.10,2013-03-21 12:48:00,
2013-03-21 07:03:00,43.4,26.0,29.74,South,190,0.0,0.0,50,0.00,,,0.00,weatherlink.com 1.10,2013-03-21 13:03:00,
2013-03-21 07:18:00,43.1,26.0,29.73,South,190,2.0,4.0,51,0.00,,,0.00,weatherlink.com 1.10,2013-03-21 13:18:00,
2013-03-21 07:33:00,42.8,26.0,29.71,South,191,4.0,4.0,51,0.00,,,0.00,weatherlink.com 1.10,2013-03-21 13:33:00,
2013-03-21 07:48:00,42.9,26.0,29.71,South,191,1.0,4.0,52,0.00,,,0.00,weatherlink.com 1.10,2013-03-21 13:48:00,
2013-03-21 08:03:00,42.9,26.0,29.70,WSW,242,1.0,10.0,51,0.00,,,0.00,weatherlink.com 1.10,2013-03-21 14:03:00,
2013-03-21 08:18:00,42.7,26.0,29.70,West,268,0.0,6.0,52,0.00,,,0.00,weatherlink.com 1.10,2013-03-21 14:18:00,
2013-03-21 08:33:00,42.7,26.0,29.70,WSW,250,6.0,8.0,52,0.00,,,0.00,weatherlink.com 1.10,2013-03-21 14:33:00,
2013-03-21 08:48:00,43.4,26.0,29.70,WSW,252,4.0,9.0,51,0.00,,,0.00,weatherlink.com 1.10,2013-03-21 14:48:00,
2013-03-21 09:04:00,43.9,26.0,29.70,West,265,5.0,13.0,50,0.00,,,0.00,weatherlink.com 1.10,2013-03-21 15:04:00,
2013-03-21 09:19:00,43.7,26.0,29.70,WSW,258,2.0,7.0,51,0.00,,,0.00,weatherlink.com 1.10,2013-03-21 15:19:00,
2013-03-21 09:34:00,43.6,26.0,29.69,WSW,240,7.0,11.0,51,0.00,,,0.00,weatherlink.com 1.10,2013-03-21 15:34:00,
2013-03-21 09:49:00,44.0,27.0,29.69,WSW,244,2.0,5.0,51,0.00,,,0.00,weatherlink.com 1.10,2013-03-21 15:49:00,
2013-03-21 10:19:00,43.7,27.0,29.69,WSW,251,5.0,10.0,52,0.00,,,0.00,weatherlink.com 1.10,2013-03-21 16:19:00,
2013-03-21 10:34:00,44.0,29.0,29.67,WSW,240,1.0,8.0,55,0.00,,,0.00,weatherlink.com 1.10,2013-03-21 16:34:00,
2013-03-21 10:49:00,45.0,29.0,29.65,WSW,256,5.0,10.0,53,0.00,,,0.00,weatherlink.com 1.10,2013-03-21 16:49:00,
2013-03-21 11:04:00,46.1,28.0,29.64,West,263,3.0,13.0,50,0.00,,,0.00,weatherlink.com 1.10,2013-03-21 17:04:00,
2013-03-21 11:19:00,47.6,28.0,29.64,NW,304,3.0,13.0,46,0.00,,,0.00,weatherlink.com 1.10,2013-03-21 17:19:00,
2013-03-21 11:34:00,48.7,26.0,29.63,NW,317,8.0,18.0,41,0.00,,,0.00,weatherlink.com 1.10,2013-03-21 17:34:00,
2013-03-21 11:49:00,50.9,26.0,29.61,West,278,15.0,20.0,38,0.00,,,0.00,weatherlink.com 1.10,2013-03-21 17:49:00,
2013-03-21 12:04:00,50.5,24.0,29.61,West,267,11.0,18.0,36,0.00,,,0.00,weatherlink.com 1.10,2013-03-21 18:04:00,
2013-03-21 12:19:00,50.3,23.0,29.59,NNW,333,10.0,18.0,35,0.00,,,0.00,weatherlink.com 1.10,2013-03-21 18:19:00,
2013-03-21 12:34:00,51.4,23.0,29.59,West,273,6.0,18.0,33,0.00,,,0.00,weatherlink.com 1.10,2013-03-21 18:34:00,
2013-03-21 12:49:00,53.0,22.0,29.58,West,267,12.0,21.0,30,0.00,,,0.00,weatherlink.com 1.10,2013-03-21 18:49:00,
2013-03-21 13:04:00,55.0,21.0,29.57,WSW,254,12.0,25.0,27,0.00,,,0.00,weatherlink.com 1.10,2013-03-21 19:04:00,
2013-03-21 13:19:00,54.6,21.0,29.57,West,271,18.0,26.0,27,0.00,,,0.00,weatherlink.com 1.10,2013-03-21 19:19:00,
2013-03-21 13:34:00,56.1,21.0,29.56,WSW,244,20.0,29.0,26,0.00,,,0.00,weatherlink.com 1.10,2013-03-21 19:34:00,
2013-03-21 13:49:00,56.2,19.0,29.56,West,262,11.0,28.0,23,0.00,,,0.00,weatherlink.com 1.10,2013-03-21 19:49:00,
2013-03-21 14:04:00,57.1,17.0,29.53,West,281,18.0,29.0,21,0.00,,,0.00,weatherlink.com 1.10,2013-03-21 20:04:00,
2013-03-21 14:19:00,57.1,16.0,29.53,WSW,254,22.0,32.0,20,0.00,,,0.00,weatherlink.com 1.10,2013-03-21 20:19:00,
2013-03-21 14:34:00,57.7,18.0,29.52,WNW,296,17.0,27.0,21,0.00,,,0.00,weatherlink.com 1.10,2013-03-21 20:34:00,
2013-03-21 14:50:00,58.1,17.0,29.51,WSW,254,12.0,28.0,20,0.00,,,0.00,weatherlink.com 1.10,2013-03-21 20:50:00,
2013-03-21 15:05:00,58.1,15.0,29.51,West,275,18.0,31.0,18,0.00,,,0.00,weatherlink.com 1.10,2013-03-21 21:05:00,
2013-03-21 15:20:00,58.2,16.0,29.51,WSW,248,17.0,26.0,19,0.00,,,0.00,weatherlink.com 1.10,2013-03-21 21:20:00,
2013-03-21 15:35:00,57.7,14.0,29.51,WNW,283,21.0,27.0,18,0.00,,,0.00,weatherlink.com 1.10,2013-03-21 21:35:00,
2013-03-21 15:50:00,57.6,14.0,29.51,West,265,16.0,23.0,18,0.00,,,0.00,weatherlink.com 1.10,2013-03-21 21:50:00,
2013-03-21 16:05:00,58.3,15.0,29.51,WNW,288,4.0,24.0,18,0.00,,,0.00,weatherlink.com 1.10,2013-03-21 22:05:00,
2013-03-21 16:20:00,58.0,16.0,29.51,WNW,295,19.0,29.0,19,0.00,,,0.00,weatherlink.com 1.10,2013-03-21 22:20:00,
2013-03-21 16:35:00,57.7,17.0,29.52,WNW,285,3.0,28.0,20,0.00,,,0.00,weatherlink.com 1.10,2013-03-21 22:35:00,
2013-03-21 16:50:00,56.7,16.0,29.52,WNW,294,13.0,25.0,20,0.00,,,0.00,weatherlink.com 1.10,2013-03-21 22:50:00,
2013-03-21 17:05:00,57.1,16.0,29.52,West,263,16.0,26.0,20,0.00,,,0.00,weatherlink.com 1.10,2013-03-21 23:05:00,
2013-03-21 17:20:00,56.8,16.0,29.52,West,276,5.0,21.0,20,0.00,,,0.00,weatherlink.com 1.10,2013-03-21 23:20:00,
2013-03-21 17:34:00,56.0,15.0,29.54,West,260,7.0,25.0,20,0.00,,,0.00,weatherlink.com 1.10,2013-03-21 23:34:00,
2013-03-21 17:50:00,56.0,16.0,29.54,West,271,5.0,23.0,21,0.00,,,0.00,weatherlink.com 1.10,2013-03-21 23:50:00,
2013-03-21 18:06:00,55.2,16.0,29.55,West,264,10.0,22.0,21,0.00,,,0.00,weatherlink.com 1.10,2013-03-22 00:06:00,
2013-03-21 18:21:00,54.4,15.0,29.56,WNW,286,9.0,23.0,21,0.00,,,0.00,weatherlink.com 1.10,2013-03-22 00:21:00,
2013-03-21 18:34:00,53.9,16.0,29.57,West,261,5.0,20.0,22,0.00,,,0.00,weatherlink.com 1.10,2013-03-22 00:34:00,
2013-03-21 18:50:00,52.9,14.0,29.58,West,275,7.0,21.0,21,0.00,,,0.00,weatherlink.com 1.10,2013-03-22 00:50:00,
2013-03-21 19:05:00,51.5,15.0,29.58,West,270,7.0,19.0,23,0.00,,,0.00,weatherlink.com 1.10,2013-03-22 01:05:00,
2013-03-21 19:20:00,50.6,15.0,29.59,West,278,11.0,15.0,24,0.00,,,0.00,weatherlink.com 1.10,2013-03-22 01:20:00,
2013-03-21 19:35:00,49.8,15.0,29.61,West,272,5.0,16.0,25,0.00,,,0.00,weatherlink.com 1.10,2013-03-22 01:35:00,
2013-03-21 19:50:00,49.1,15.0,29.62,West,279,5.0,14.0,26,0.00,,,0.00,weatherlink.com 1.10,2013-03-22 01:50:00,
2013-03-21 20:05:00,48.7,16.0,29.63,West,279,4.0,15.0,27,0.00,,,0.00,weatherlink.com 1.10,2013-03-22 02:05:00,
2013-03-21 20:20:00,47.9,16.0,29.64,West,277,1.0,10.0,28,0.00,,,0.00,weatherlink.com 1.10,2013-03-22 02:20:00,
2013-03-21 20:35:00,47.0,17.0,29.65,West,271,2.0,7.0,30,0.00,,,0.00,weatherlink.com 1.10,2013-03-22 02:35:00,
2013-03-21 20:50:00,46.7,17.0,29.66,West,273,2.0,8.0,30,0.00,,,0.00,weatherlink.com 1.10,2013-03-22 02:50:00,
2013-03-21 21:05:00,45.6,16.0,29.67,West,273,0.0,4.0,30,0.00,,,0.00,weatherlink.com 1.10,2013-03-22 03:05:00,
2013-03-21 21:20:00,44.0,16.0,29.68,West,273,0.0,5.0,32,0.00,,,0.00,weatherlink.com 1.10,2013-03-22 03:20:00,
2013-03-21 21:35:00,43.1,15.0,29.69,West,273,0.0,1.0,32,0.00,,,0.00,weatherlink.com 1.10,2013-03-22 03:35:00,
2013-03-21 21:50:00,40.6,14.0,29.69,West,273,0.0,1.0,34,0.00,,,0.00,weatherlink.com 1.10,2013-03-22 03:50:00,
2013-03-21 22:05:00,38.4,13.0,29.68,West,273,0.0,3.0,36,0.00,,,0.00,weatherlink.com 1.10,2013-03-22 04:05:00,
2013-03-21 22:20:00,36.8,14.0,29.70,West,273,0.0,3.0,39,0.00,,,0.00,weatherlink.com 1.10,2013-03-22 04:20:00,
2013-03-21 22:35:00,36.6,15.0,29.70,West,273,2.0,3.0,41,0.00,,,0.00,weatherlink.com 1.10,2013-03-22 04:35:00,
2013-03-21 22:50:00,36.8,15.0,29.70,West,267,0.0,5.0,41,0.00,,,0.00,weatherlink.com 1.10,2013-03-22 04:50:00,
2013-03-21 23:05:00,36.2,16.0,29.70,West,265,4.0,4.0,43,0.00,,,0.00,weatherlink.com 1.10,2013-03-22 05:05:00,
2013-03-21 23:20:00,36.0,15.0,29.70,SW,228,3.0,6.0,43,0.00,,,0.00,weatherlink.com 1.10,2013-03-22 05:20:00,
2013-03-21 23:35:00,36.0,15.0,29.70,SW,218,1.0,6.0,43,0.00,,,0.00,weatherlink.com 1.10,2013-03-22 05:35:00,
2013-03-21 23:50:00,36.6,15.0,29.69,South,173,2.0,7.0,41,0.00,,,0.00,weatherlink.com 1.10,2013-03-22 05:50:00,